Bookmark and Share
Track history (hours):
 

Birk

Last reported at 2014-Apr-22 12:11 UTC. Time now 2014-Apr-23 06:50 UTC.
Position N 18°01' W 063°03'.

Length 132 m; draft 7 m.

Type: Ship. MMSI: 304535000.

NotesDate/timePositionNaut miles runAvg speedWind from/ knotsBaromVisibWave heightAir tempDewpointWater temp
2014-Apr-22 12:11N 18°01' W 063°03'1 1.8
2014-Apr-22 11:29N 18°00' W 063°04'7 7.4
2014-Apr-22 10:30N 17°60' W 063°12'9 9.1
2014-Apr-22 09:28N 17°59' W 063°21'1112.5
2014-Apr-22 08:33N 17°58' W 063°33'  
2014-Apr-19 06:05N 25°34' W 080°00'712.5
2014-Apr-19 05:33N 25°40' W 080°02'8 8.2
2014-Apr-19 04:33N 25°46' W 080°09'1 1.2
2014-Apr-19 03:32N 25°46' W 080°10'0 0.0
2014-Apr-19 02:33N 25°46' W 080°10'0 0.0
2014-Apr-19 01:32N 25°46' W 080°10'0 0.0
2014-Apr-19 00:33N 25°46' W 080°10'0 0.0
2014-Apr-18 23:32N 25°46' W 080°10'0 0.0
2014-Apr-18 22:30N 25°46' W 080°10'0 0.0
2014-Apr-18 21:31N 25°46' W 080°10'0 0.0
2014-Apr-18 20:32N 25°46' W 080°10'0 0.0
2014-Apr-18 19:27N 25°46' W 080°10'0 0.0
2014-Apr-18 18:32N 25°46' W 080°10'1 0.6
2014-Apr-18 17:33N 25°46' W 080°09'8 8.4
2014-Apr-18 16:34N 25°41' W 080°02'  

Dump ship's entire track history

sailing weather and tide predictions

Birk — V2BF5 — position and weather